Hounsfield, New York
Current Conditions -  °F | °C
As of 1:56 PM on Monday 20 Oct 2014 (Local Time) from KART Reporting Station
Overcast Overcast  
Wind Chill: 51°   Ceiling: 7000
Heat Index: 51°   Visibility: 10mi
Dew Point: 39°   Wind: 0mph
Humidity: 63%   Direction: NA
Pressure: 29.89"   Gusts: NA
Location:  43.9321°N, 76.0832°W
Report Text: KART 201756Z AUTO 00000KT 10SM OVC070 11/04 A2989 RMK AO2 RAE07 SLP124 P0000 60001 T01060039 10106 20061 56020
Loading
Personal Weather Stations






























Interactive Weather Map
Tropical Storm Tracking
New forecast layout! Learn more

10-Day Weather Forecast

Advertisements
Track Severe Weather on mobile